Time;durP1;ratioP1;P1;durP2;ratioP2;P2;SDS_P1;SDS_P2;PMS_P1;PMS_P2;Temp;Humidity;BMP_temperature;BMP_pressure;BME280_temperature;BME280_humidity;BME280_pressure;Samples;Min_cycle;Max_cycle;Signal;HPM_P1;HPM_P2
2023/09/01 00:00:41;;;;;;;;;2.00;2.00;;;;;23.48;49.84;100482.62;110105;1251;19726;-38
2023/09/01 00:03:29;;;;;;;;;1.00;1.00;;;;;23.49;49.66;100484.14;110116;1266;21008;-35
2023/09/01 00:05:58;;;;;;;;;2.00;2.00;;;;;23.51;49.68;100487.23;110118;1250;18679;-36
2023/09/01 00:08:26;;;;;;;;;2.00;2.00;;;;;23.49;49.82;100484.24;110243;1258;19679;-36
2023/09/01 00:10:53;;;;;;;;;2.00;2.00;;;;;23.49;49.78;100479.87;110195;1251;19269;-36
2023/09/01 00:13:20;;;;;;;;;2.00;2.00;;;;;23.50;49.78;100481.39;110170;1265;18556;-38
2023/09/01 00:15:48;;;;;;;;;2.00;2.00;;;;;23.50;49.53;100487.12;110174;1250;19723;-38
2023/09/01 00:18:15;;;;;;;;;1.00;1.00;;;;;23.51;49.74;100486.17;110187;1250;20445;-39
2023/09/01 00:20:42;;;;;;;;;2.00;2.00;;;;;23.49;49.87;100489.33;110172;1250;20013;-38
2023/09/01 00:23:10;;;;;;;;;4.00;4.00;;;;;23.48;49.68;100491.42;110191;1250;20187;-37
2023/09/01 00:25:37;;;;;;;;;1.00;1.00;;;;;23.50;49.63;100493.85;110194;1250;21436;-38
2023/09/01 00:28:04;;;;;;;;;4.00;2.00;;;;;23.50;49.79;100495.16;110062;1260;158397;-38
2023/09/01 00:30:32;;;;;;;;;2.00;2.00;;;;;23.49;49.89;100492.55;110177;1265;18917;-38
2023/09/01 00:32:59;;;;;;;;;2.00;2.00;;;;;23.50;49.77;100493.59;110157;1250;22192;-39
2023/09/01 00:35:26;;;;;;;;;2.00;2.00;;;;;23.50;49.75;100490.36;110202;1250;20012;-39
2023/09/01 00:37:54;;;;;;;;;2.00;2.00;;;;;23.49;49.87;100482.83;110190;1251;19659;-38
2023/09/01 00:40:21;;;;;;;;;2.00;2.00;;;;;23.50;49.66;100482.42;110197;1251;19377;-38
2023/09/01 00:42:49;;;;;;;;;2.00;2.00;;;;;23.51;49.91;100485.53;110220;1260;19882;-38
2023/09/01 00:45:16;;;;;;;;;1.00;1.00;;;;;23.51;49.98;100487.27;110072;1250;19643;-39
2023/09/01 00:47:43;;;;;;;;;2.00;2.00;;;;;23.50;49.85;100489.48;110176;1250;19327;-37
2023/09/01 00:50:11;;;;;;;;;2.00;1.50;;;;;23.51;49.78;100480.77;110210;1250;18572;-37
2023/09/01 00:52:38;;;;;;;;;2.00;2.00;;;;;23.50;49.73;100481.66;110228;1257;18262;-38
2023/09/01 00:55:05;;;;;;;;;1.00;1.00;;;;;23.51;49.89;100481.32;110179;1250;17902;-38
2023/09/01 00:57:33;;;;;;;;;1.00;1.00;;;;;23.51;49.86;100488.10;110208;1251;20458;-38
2023/09/01 01:00:00;;;;;;;;;1.00;1.00;;;;;23.50;49.76;100487.58;110230;1249;18825;-38
2023/09/01 01:02:27;;;;;;;;;2.00;2.00;;;;;23.51;49.96;100485.59;110208;1250;19273;-37
2023/09/01 01:04:55;;;;;;;;;1.00;1.00;;;;;23.51;49.84;100491.39;110189;1265;18587;-37
2023/09/01 01:07:23;;;;;;;;;2.00;2.00;;;;;23.50;49.84;100490.95;110208;1250;19670;-38
2023/09/01 01:09:50;;;;;;;;;1.00;1.00;;;;;23.50;49.88;100492.48;110205;1265;17912;-38
2023/09/01 01:12:17;;;;;;;;;2.00;2.00;;;;;23.52;49.88;100494.59;110182;1266;21806;-38
2023/09/01 01:14:44;;;;;;;;;2.67;2.00;;;;;23.51;49.89;100489.30;110160;1250;20155;-39
2023/09/01 01:17:12;;;;;;;;;2.00;2.00;;;;;23.50;49.80;100487.29;110207;1250;19345;-38
2023/09/01 01:19:41;;;;;;;;;1.00;1.00;;;;;23.51;49.81;100489.91;110170;1250;20072;-38
2023/09/01 01:22:08;;;;;;;;;2.00;2.00;;;;;23.52;49.82;100492.30;110212;1250;18248;-38
2023/09/01 01:24:35;;;;;;;;;1.00;1.00;;;;;23.52;49.87;100491.15;110201;1265;17901;-38
2023/09/01 01:27:03;;;;;;;;;1.00;1.00;;;;;23.53;49.83;100492.89;110194;1265;19076;-37
2023/09/01 01:29:30;;;;;;;;;1.00;1.00;;;;;23.54;50.00;100494.64;110211;1250;19680;-38
2023/09/01 01:31:58;;;;;;;;;2.00;1.67;;;;;23.53;49.85;100491.91;110166;1257;19517;-38
2023/09/01 01:34:25;;;;;;;;;1.00;1.00;;;;;23.52;49.73;100492.72;110178;1250;20116;-38
2023/09/01 01:36:52;;;;;;;;;1.00;1.00;;;;;23.52;49.77;100495.23;110066;1265;22200;-39
2023/09/01 01:39:20;;;;;;;;;1.00;1.00;;;;;23.52;49.86;100496.51;110061;1265;17765;-39
2023/09/01 01:41:48;;;;;;;;;2.00;2.00;;;;;23.52;49.88;100497.27;110197;1250;19955;-37
2023/09/01 01:44:15;;;;;;;;;2.00;2.00;;;;;23.52;50.01;100505.60;110249;1250;19730;-38
2023/09/01 01:46:42;;;;;;;;;1.00;1.00;;;;;23.55;49.89;100507.60;110196;1251;22186;-38
2023/09/01 01:49:10;;;;;;;;;2.00;2.00;;;;;23.54;49.82;100508.48;110206;1251;20010;-39
2023/09/01 01:51:38;;;;;;;;;1.00;1.00;;;;;23.55;49.98;100506.18;110198;1250;18232;-37
2023/09/01 01:54:05;;;;;;;;;1.00;1.00;;;;;23.59;49.87;100505.69;110169;1250;20992;-39
2023/09/01 01:56:33;;;;;;;;;1.50;1.50;;;;;23.58;50.00;100507.95;110102;1250;19953;-36
2023/09/01 01:59:00;;;;;;;;;1.00;1.00;;;;;23.57;50.02;100506.86;110192;1250;19470;-37
2023/09/01 02:01:27;;;;;;;;;1.00;1.00;;;;;23.57;49.76;100511.83;110220;1265;19288;-37
2023/09/01 02:03:54;;;;;;;;;2.00;2.00;;;;;23.55;49.92;100511.92;110192;1251;21093;-39
2023/09/01 02:06:22;;;;;;;;;1.00;1.00;;;;;23.54;49.71;100511.92;110197;1251;19610;-38
2023/09/01 02:08:49;;;;;;;;;1.00;1.00;;;;;23.56;50.05;100510.70;110181;1266;20951;-38
2023/09/01 02:11:16;;;;;;;;;2.00;1.00;;;;;23.55;49.95;100509.47;110179;1259;21108;-38
2023/09/01 02:13:44;;;;;;;;;1.00;1.00;;;;;23.57;49.91;100508.83;110204;1250;18217;-38
2023/09/01 02:16:11;;;;;;;;;1.00;1.00;;;;;23.56;50.00;100512.07;110189;1261;17840;-38
2023/09/01 02:18:38;;;;;;;;;1.50;1.50;;;;;23.58;49.86;100511.01;110203;1250;21167;-38
2023/09/01 02:21:06;;;;;;;;;2.00;2.00;;;;;23.56;49.83;100511.63;110217;1265;18205;-37
2023/09/01 02:23:33;;;;;;;;;1.00;1.00;;;;;23.57;49.75;100518.23;110189;1251;19300;-38
2023/09/01 02:26:00;;;;;;;;;2.00;2.00;;;;;23.57;49.96;100517.96;110194;1250;21149;-38
2023/09/01 02:28:27;;;;;;;;;1.00;1.00;;;;;23.55;49.86;100515.41;110179;1251;20167;-38
2023/09/01 02:30:55;;;;;;;;;1.00;1.00;;;;;23.54;50.06;100512.95;110184;1266;19237;-38
2023/09/01 02:33:22;;;;;;;;;1.00;1.00;;;;;23.55;50.00;100515.96;110162;1259;21668;-37
2023/09/01 02:35:49;;;;;;;;;2.00;2.00;;;;;23.56;49.68;100516.39;110090;1259;19622;-37
2023/09/01 02:38:17;;;;;;;;;1.00;1.00;;;;;23.55;49.73;100518.96;110199;1265;17867;-37
2023/09/01 02:40:44;;;;;;;;;2.00;1.00;;;;;23.56;49.93;100520.71;110211;1265;19375;-38
2023/09/01 02:43:11;;;;;;;;;1.00;1.00;;;;;23.59;49.72;100524.44;110200;1250;19672;-37
2023/09/01 02:45:39;;;;;;;;;1.00;1.00;;;;;23.56;49.82;100527.77;110228;1265;18762;-37
2023/09/01 02:48:06;;;;;;;;;2.00;1.00;;;;;23.54;49.89;100525.42;110153;1260;18566;-38
2023/09/01 02:50:33;;;;;;;;;2.00;2.00;;;;;23.55;50.06;100521.81;110205;1250;19743;-37
2023/09/01 02:53:01;;;;;;;;;2.00;1.00;;;;;23.52;49.92;100521.02;110171;1259;20240;-37
2023/09/01 02:55:28;;;;;;;;;1.00;1.00;;;;;23.53;50.05;100520.35;110196;1257;19913;-37
2023/09/01 02:57:56;;;;;;;;;1.00;1.00;;;;;23.54;49.89;100525.09;110208;1265;18268;-38
2023/09/01 03:00:23;;;;;;;;;1.00;1.00;;;;;23.53;49.77;100525.70;110209;1251;19425;-39
2023/09/01 03:02:51;;;;;;;;;2.00;2.00;;;;;23.52;50.11;100524.40;110201;1251;20393;-38
2023/09/01 03:05:19;;;;;;;;;2.00;2.00;;;;;23.52;49.77;100526.64;110187;1250;19592;-38
2023/09/01 03:07:46;;;;;;;;;2.00;2.00;;;;;23.52;49.91;100529.98;110184;1258;22249;-37
2023/09/01 03:10:13;;;;;;;;;2.00;1.00;;;;;23.53;49.98;100532.05;110197;1251;19968;-38
2023/09/01 03:12:40;;;;;;;;;1.00;1.00;;;;;23.52;49.81;100530.63;110163;1257;20120;-38
2023/09/01 03:15:08;;;;;;;;;1.00;1.00;;;;;23.51;50.04;100528.67;110237;1265;17886;-38
2023/09/01 03:17:35;;;;;;;;;1.00;1.00;;;;;23.52;50.10;100528.23;110181;1259;20574;-38
2023/09/01 03:20:04;;;;;;;;;1.00;1.00;;;;;23.53;49.80;100533.02;110210;1259;19721;-39
2023/09/01 03:22:31;;;;;;;;;1.00;1.00;;;;;23.54;49.82;100529.14;110212;1250;19315;-38
2023/09/01 03:24:59;;;;;;;;;1.00;1.00;;;;;23.52;49.96;100531.45;110226;1266;20168;-39
2023/09/01 03:27:27;;;;;;;;;1.00;1.00;;;;;23.51;50.06;100534.14;110201;1265;18240;-38
2023/09/01 03:29:54;;;;;;;;;1.00;1.00;;;;;23.51;50.02;100530.75;110215;1265;17860;-38
2023/09/01 03:32:22;;;;;;;;;1.00;1.00;;;;;23.53;49.94;100536.27;110165;1251;19998;-39
2023/09/01 03:34:49;;;;;;;;;2.00;1.00;;;;;23.53;49.96;100536.97;110064;1265;18264;-38
2023/09/01 03:37:16;;;;;;;;;1.00;1.00;;;;;23.55;49.93;100538.15;110055;1265;21951;-39
2023/09/01 03:39:44;;;;;;;;;1.00;1.00;;;;;23.53;49.88;100535.66;110136;1251;19878;-38
2023/09/01 03:42:11;;;;;;;;;1.00;1.00;;;;;23.54;49.79;100534.45;110186;1259;19627;-38
2023/09/01 03:44:38;;;;;;;;;1.00;1.00;;;;;23.54;49.80;100535.04;110221;1265;19052;-38
2023/09/01 03:47:05;;;;;;;;;1.00;1.00;;;;;23.53;49.98;100532.15;110215;1251;20186;-37
2023/09/01 03:49:33;;;;;;;;;1.00;1.00;;;;;23.55;50.13;100533.30;110205;1250;21565;-38
2023/09/01 03:52:00;;;;;;;;;2.00;2.00;;;;;23.55;49.84;100532.20;110174;1250;19216;-38
2023/09/01 03:54:27;;;;;;;;;1.00;1.00;;;;;23.53;49.87;100532.86;110072;1265;21581;-37
2023/09/01 03:56:55;;;;;;;;;2.00;2.00;;;;;23.54;50.07;100534.63;110155;1251;19988;-38
2023/09/01 03:59:22;;;;;;;;;1.00;1.00;;;;;23.53;49.87;100536.86;110181;1265;17866;-38
2023/09/01 04:01:49;;;;;;;;;1.00;1.00;;;;;23.53;49.97;100536.48;110202;1249;20182;-41
2023/09/01 04:04:17;;;;;;;;;1.50;1.50;;;;;23.54;50.19;100537.19;110182;1251;20481;-38
2023/09/01 04:06:44;;;;;;;;;2.00;2.00;;;;;23.56;49.83;100535.15;110203;1251;19217;-37
2023/09/01 04:09:12;;;;;;;;;1.00;1.00;;;;;23.54;49.93;100533.08;110171;1265;21779;-38
2023/09/01 04:11:39;;;;;;;;;1.00;1.00;;;;;23.54;49.86;100531.48;110209;1250;19638;-37
2023/09/01 04:14:09;;;;;;;;;1.00;1.00;;;;;23.53;50.10;100527.17;110201;1257;23150;-38
2023/09/01 04:16:36;;;;;;;;;1.00;1.00;;;;;23.54;50.04;100524.77;110207;1250;20003;-38
2023/09/01 04:19:03;;;;;;;;;1.00;1.00;;;;;23.54;49.94;100528.60;110196;1249;19194;-38
2023/09/01 04:21:31;;;;;;;;;1.00;1.00;;;;;23.55;49.91;100526.79;110205;1250;23146;-38
2023/09/01 04:23:58;;;;;;;;;1.00;1.00;;;;;23.54;49.88;100524.98;110195;1259;19987;-38
2023/09/01 04:26:25;;;;;;;;;2.00;1.50;;;;;23.54;49.90;100525.70;110232;1265;18198;-37
2023/09/01 04:28:53;;;;;;;;;2.00;2.00;;;;;23.53;50.01;100525.70;110173;1265;19291;-37
2023/09/01 04:31:20;;;;;;;;;1.00;1.00;;;;;23.54;49.91;100526.91;110178;1250;21644;-39
2023/09/01 04:33:47;;;;;;;;;1.00;1.00;;;;;23.55;50.08;100526.34;110169;1250;19722;-38
2023/09/01 04:36:15;;;;;;;;;1.50;1.50;;;;;23.54;49.90;100523.39;110160;1257;21568;-38
2023/09/01 04:38:42;;;;;;;;;1.00;1.00;;;;;23.54;50.15;100530.52;110166;1251;20007;-39
2023/09/01 04:41:09;;;;;;;;;1.00;1.00;;;;;23.55;50.11;100533.89;110204;1265;18246;-38
2023/09/01 04:43:37;;;;;;;;;1.00;1.00;;;;;23.55;49.96;100538.92;110221;1251;19296;-38
2023/09/01 04:46:04;;;;;;;;;1.00;1.00;;;;;23.54;49.97;100540.52;110204;1250;20033;-38
2023/09/01 04:48:31;;;;;;;;;1.00;1.00;;;;;23.54;50.07;100542.16;110215;1259;19629;-38
2023/09/01 04:51:00;;;;;;;;;1.00;1.00;;;;;23.57;49.69;100542.61;110182;1250;19312;-38
2023/09/01 04:53:27;;;;;;;;;1.00;1.00;;;;;23.57;50.12;100541.64;110216;1250;19880;-38
2023/09/01 04:55:55;;;;;;;;;1.00;1.00;;;;;23.57;49.83;100546.89;110178;1265;19632;-38
2023/09/01 04:58:22;;;;;;;;;1.00;1.00;;;;;23.59;49.93;100542.70;110206;1260;19155;-38
2023/09/01 05:00:49;;;;;;;;;1.00;1.00;;;;;23.62;49.75;100546.88;110186;1265;20095;-38
2023/09/01 05:03:17;;;;;;;;;1.00;1.00;;;;;23.61;49.78;100547.94;110211;1259;19523;-37
2023/09/01 05:05:44;;;;;;;;;2.00;2.00;;;;;23.63;50.04;100549.27;110157;1259;21506;-36
2023/09/01 05:08:12;;;;;;;;;2.00;2.00;;;;;23.68;49.83;100545.05;110167;1250;19999;-36
2023/09/01 05:10:39;;;;;;;;;1.50;1.50;;;;;23.73;50.03;100543.82;110157;1251;22525;-36
2023/09/01 05:13:06;;;;;;;;;123.00;95.00;;;;;23.75;50.32;100546.05;110188;1250;19280;-37
2023/09/01 05:15:34;;;;;;;;;281.00;199.00;;;;;23.80;50.13;100545.65;110162;1265;22064;-37
2023/09/01 05:18:02;;;;;;;;;406.00;283.50;;;;;23.84;50.00;100543.13;110179;1265;18929;-38
2023/09/01 05:20:29;;;;;;;;;370.00;259.50;;;;;23.81;49.37;100540.76;110167;1265;18707;-40
2023/09/01 05:22:56;;;;;;;;;296.00;211.00;;;;;23.72;47.95;100546.13;110167;1253;20813;-37
2023/09/01 05:25:24;;;;;;;;;239.00;164.00;;;;;23.68;47.67;100540.73;110177;1250;20405;-40
2023/09/01 05:27:51;;;;;;;;;190.00;136.00;;;;;23.62;47.28;100542.27;110162;1257;20368;-38
2023/09/01 05:30:18;;;;;;;;;172.00;121.00;;;;;23.57;46.75;100544.21;110190;1250;20783;-38
2023/09/01 05:32:46;;;;;;;;;134.00;99.00;;;;;23.49;46.55;100546.64;110168;1265;18981;-38
2023/09/01 05:35:13;;;;;;;;;108.00;83.00;;;;;23.48;46.66;100550.58;110165;1250;20172;-38
2023/09/01 05:37:40;;;;;;;;;89.00;67.00;;;;;23.51;46.15;100558.20;110154;1251;20784;-38
2023/09/01 05:40:08;;;;;;;;;78.33;61.00;;;;;23.52;46.08;100558.19;110156;1250;20413;-38
2023/09/01 05:42:35;;;;;;;;;73.00;53.00;;;;;23.50;45.72;100557.34;110160;1265;22493;-37
2023/09/01 05:45:02;;;;;;;;;69.00;48.00;;;;;23.49;45.89;100558.60;110180;1251;20715;-38
2023/09/01 05:47:30;;;;;;;;;52.00;40.00;;;;;23.50;46.01;100560.13;110152;1251;20231;-38
2023/09/01 05:49:57;;;;;;;;;39.00;32.00;;;;;23.53;45.47;100563.92;110138;1259;20046;-37
2023/09/01 05:52:25;;;;;;;;;39.00;32.00;;;;;23.53;45.55;100566.45;110103;1253;22097;-37
2023/09/01 05:54:53;;;;;;;;;35.50;26.00;;;;;23.45;46.02;100567.02;110175;1250;20024;-37
2023/09/01 05:57:20;;;;;;;;;24.00;20.00;;;;;23.46;45.33;100568.59;110168;1250;18991;-38
2023/09/01 05:59:47;;;;;;;;;18.00;17.00;;;;;23.50;45.17;100573.14;110198;1266;19316;-37
2023/09/01 06:02:15;;;;;;;;;12.00;12.00;;;;;23.51;45.03;100575.15;110192;1265;18586;-38
2023/09/01 06:04:42;;;;;;;;;16.50;16.00;;;;;23.50;45.00;100579.27;110178;1265;18699;-38
2023/09/01 06:07:09;;;;;;;;;15.00;12.00;;;;;23.54;44.80;100572.02;110177;1265;21120;-38
2023/09/01 06:09:37;;;;;;;;;12.00;10.00;;;;;23.52;45.01;100574.00;110173;1251;20012;-37
2023/09/01 06:12:04;;;;;;;;;13.00;12.00;;;;;23.61;45.48;100577.52;110185;1250;22925;-37
2023/09/01 06:14:31;;;;;;;;;13.00;11.50;;;;;23.68;45.40;100581.75;110170;1250;20889;-36
2023/09/01 06:16:59;;;;;;;;;12.00;10.00;;;;;23.63;45.78;100582.41;110160;1265;18636;-36
2023/09/01 06:19:26;;;;;;;;;13.00;12.50;;;;;23.73;45.70;100579.86;110195;1249;20237;-36
2023/09/01 06:21:53;;;;;;;;;10.00;9.00;;;;;23.85;45.94;100580.04;110162;1266;20741;-36
2023/09/01 06:24:21;;;;;;;;;12.00;12.00;;;;;23.91;46.07;100580.77;110196;1250;20092;-37
2023/09/01 06:26:48;;;;;;;;;9.50;9.50;;;;;23.96;46.47;100578.73;110173;1265;20239;-36
2023/09/01 06:29:16;;;;;;;;;9.00;9.00;;;;;23.98;46.26;100579.74;110176;1251;20762;-36
2023/09/01 06:31:43;;;;;;;;;10.00;10.00;;;;;23.84;45.41;100581.15;110155;1265;22592;-37
2023/09/01 06:34:10;;;;;;;;;8.00;6.00;;;;;23.71;44.71;100584.27;110177;1265;18833;-37
2023/09/01 06:36:37;;;;;;;;;11.00;9.00;;;;;23.68;44.29;100587.55;110173;1265;19341;-37
2023/09/01 06:39:06;;;;;;;;;10.00;8.00;;;;;23.59;43.88;100586.67;110178;1250;18572;-38
2023/09/01 06:41:33;;;;;;;;;6.00;6.00;;;;;23.45;43.64;100587.20;110201;1250;20314;-38
2023/09/01 06:44:02;;;;;;;;;6.00;6.00;;;;;23.32;43.98;100587.80;110158;1250;20799;-39
2023/09/01 06:46:29;;;;;;;;;8.00;8.00;;;;;23.27;43.81;100594.90;110196;1250;19627;-37
2023/09/01 06:48:56;;;;;;;;;8.50;8.50;;;;;23.32;44.02;100592.23;110166;1265;18721;-38
2023/09/01 06:51:24;;;;;;;;;6.00;6.00;;;;;23.30;44.09;100593.39;110175;1265;19327;-38
2023/09/01 06:53:51;;;;;;;;;6.00;6.00;;;;;23.16;44.37;100591.52;110165;1249;19696;-39
2023/09/01 06:56:18;;;;;;;;;8.00;8.00;;;;;23.08;44.22;100587.78;110182;1259;19990;-38
2023/09/01 06:58:46;;;;;;;;;6.67;5.67;;;;;23.03;44.65;100587.68;110210;1257;19997;-38
2023/09/01 07:01:15;;;;;;;;;6.00;6.00;;;;;23.13;44.12;100587.79;110196;1265;19849;-38
2023/09/01 07:03:43;;;;;;;;;6.00;5.50;;;;;23.06;44.46;100591.96;110200;1259;20019;-38
2023/09/01 07:06:11;;;;;;;;;6.67;6.67;;;;;23.14;44.89;100593.52;110194;1250;20822;-38
2023/09/01 07:08:38;;;;;;;;;9.00;8.50;;;;;23.27;44.59;100593.05;110179;1265;18560;-37
2023/09/01 07:11:06;;;;;;;;;6.00;6.00;;;;;23.33;44.11;100596.75;110192;1250;22654;-38
2023/09/01 07:13:33;;;;;;;;;8.00;8.00;;;;;23.30;43.88;100594.43;110205;1250;20740;-39
2023/09/01 07:16:00;;;;;;;;;6.67;6.67;;;;;23.35;43.51;100592.52;110214;1265;18372;-38
2023/09/01 07:18:29;;;;;;;;;6.00;6.00;;;;;23.34;43.48;100592.52;110174;1250;18635;-38
2023/09/01 07:20:56;;;;;;;;;11.50;9.00;;;;;23.35;43.41;100592.35;110213;1249;19203;-38
2023/09/01 07:23:23;;;;;;;;;4.67;4.67;;;;;23.33;43.66;100596.75;110186;1259;20065;-37
2023/09/01 07:25:51;;;;;;;;;5.00;5.00;;;;;23.31;43.63;100598.85;110184;1251;20090;-38
2023/09/01 07:28:18;;;;;;;;;5.00;5.00;;;;;23.34;43.89;100602.75;110168;1251;22928;-39
2023/09/01 07:30:45;;;;;;;;;6.00;6.00;;;;;23.26;44.03;100603.70;110209;1259;19581;-38
2023/09/01 07:33:12;;;;;;;;;4.00;4.00;;;;;23.11;44.19;100603.83;110177;1251;22684;-38
2023/09/01 07:35:40;;;;;;;;;6.00;6.00;;;;;23.02;44.61;100605.33;110139;1259;20562;-38
2023/09/01 07:38:07;;;;;;;;;9.00;8.00;;;;;23.19;43.84;100610.23;110120;1259;19604;-37
2023/09/01 07:40:34;;;;;;;;;10.00;9.00;;;;;23.24;43.57;100609.54;110169;1251;20205;-36
2023/09/01 07:43:02;;;;;;;;;9.50;9.50;;;;;23.25;43.54;100608.48;110084;1251;20711;-36
2023/09/01 07:45:29;;;;;;;;;9.00;9.00;;;;;23.27;43.54;100611.14;110082;1265;19584;-35
2023/09/01 07:47:57;;;;;;;;;6.00;6.00;;;;;23.22;43.22;100609.65;110169;1265;19817;-38
2023/09/01 07:50:24;;;;;;;;;7.00;7.00;;;;;23.15;43.65;100610.39;110192;1251;20795;-37
2023/09/01 07:52:51;;;;;;;;;6.00;6.00;;;;;23.18;43.63;100613.09;110220;1251;18522;-37
2023/09/01 07:55:19;;;;;;;;;6.00;6.00;;;;;23.17;43.53;100611.24;110193;1250;20201;-37
2023/09/01 07:57:46;;;;;;;;;6.00;6.00;;;;;23.16;44.08;100617.11;110178;1250;20806;-37
2023/09/01 08:00:13;;;;;;;;;8.00;6.00;;;;;23.17;44.23;100611.13;110177;1255;20128;-37
2023/09/01 08:02:41;;;;;;;;;5.00;5.00;;;;;23.22;44.21;100614.73;110163;1265;18819;-36
2023/09/01 08:05:08;;;;;;;;;8.50;8.00;;;;;23.19;44.32;100620.08;110199;1250;20864;-37
2023/09/01 08:07:35;;;;;;;;;6.00;6.00;;;;;23.10;44.39;100621.20;110190;1260;19593;-37
2023/09/01 08:10:03;;;;;;;;;11.50;10.00;;;;;23.16;44.31;100620.16;110192;1265;18576;-37
2023/09/01 08:12:30;;;;;;;;;6.00;5.00;;;;;23.17;44.17;100614.95;110202;1250;20715;-37
2023/09/01 08:14:58;;;;;;;;;6.00;6.00;;;;;23.19;44.12;100617.95;110188;1257;20018;-37
2023/09/01 08:17:25;;;;;;;;;6.00;6.00;;;;;23.19;44.19;100617.84;110203;1259;20178;-38
2023/09/01 08:19:52;;;;;;;;;6.00;6.00;;;;;23.10;44.41;100613.89;110170;1250;22245;-35
2023/09/01 08:22:20;;;;;;;;;8.50;8.50;;;;;23.15;44.08;100613.77;110187;1251;19681;-36
2023/09/01 08:24:47;;;;;;;;;8.00;7.50;;;;;23.14;44.18;100617.99;110198;1265;18604;-36
2023/09/01 08:27:14;;;;;;;;;8.33;8.00;;;;;23.08;44.09;100617.89;110195;1249;20728;-35
2023/09/01 08:29:42;;;;;;;;;6.00;6.00;;;;;23.11;43.90;100614.26;110191;1250;20919;-36
2023/09/01 08:32:11;;;;;;;;;5.67;5.67;;;;;23.20;43.50;100610.67;110232;1250;20129;-38
2023/09/01 08:34:39;;;;;;;;;5.00;5.00;;;;;23.11;43.66;100613.21;110200;1265;19201;-37
2023/09/01 08:37:06;;;;;;;;;5.00;5.00;;;;;23.14;43.13;100615.70;110203;1253;19658;-36
2023/09/01 08:39:34;;;;;;;;;6.00;6.00;;;;;23.01;43.13;100616.33;110182;1265;19522;-36
2023/09/01 08:42:01;;;;;;;;;5.33;5.33;;;;;23.09;43.20;100612.36;110097;1265;19440;-38
2023/09/01 08:44:29;;;;;;;;;7.00;6.00;;;;;23.19;43.03;100611.48;110059;1251;19621;-36
2023/09/01 08:46:57;;;;;;;;;8.00;6.00;;;;;23.14;43.37;100611.27;110151;1251;20047;-37
2023/09/01 08:49:25;;;;;;;;;8.00;6.00;;;;;23.14;42.91;100612.48;110154;1251;20771;-36
2023/09/01 08:51:55;;;;;;;;;7.00;7.00;;;;;23.28;42.86;100614.90;110132;1250;22407;-36
2023/09/01 08:54:23;;;;;;;;;7.00;7.00;;;;;23.33;42.76;100610.58;110198;1257;18672;-38
2023/09/01 08:56:50;;;;;;;;;6.00;5.00;;;;;23.36;42.59;100603.98;110198;1259;20659;-37
2023/09/01 08:59:18;;;;;;;;;6.00;5.00;;;;;23.33;42.78;100614.41;110161;1265;18324;-37
2023/09/01 09:01:46;;;;;;;;;4.50;4.50;;;;;23.38;42.79;100606.97;110205;1250;19987;-37
2023/09/01 09:04:13;;;;;;;;;5.00;5.00;;;;;23.33;42.54;100616.20;110189;1250;20891;-37
2023/09/01 09:06:40;;;;;;;;;7.00;5.00;;;;;23.38;42.45;100616.36;110179;1266;20001;-36
2023/09/01 09:09:08;;;;;;;;;5.00;5.00;;;;;23.26;42.32;100614.59;110183;1250;20253;-37
2023/09/01 09:11:35;;;;;;;;;7.00;5.00;;;;;23.18;41.69;100616.04;110158;1251;20949;-38
2023/09/01 09:14:02;;;;;;;;;4.00;4.00;;;;;23.09;41.97;100616.20;110179;1250;19629;-37
2023/09/01 09:16:29;;;;;;;;;5.00;5.00;;;;;23.03;41.58;100620.90;110195;1265;19798;-35
2023/09/01 09:18:57;;;;;;;;;4.50;4.50;;;;;23.02;41.57;100617.79;110177;1250;21757;-37
2023/09/01 09:21:24;;;;;;;;;7.00;7.00;;;;;23.01;41.63;100616.49;110161;1251;20869;-36
2023/09/01 09:23:51;;;;;;;;;9.00;8.00;;;;;23.04;41.58;100614.98;110168;1250;23635;-36
2023/09/01 09:26:19;;;;;;;;;12.00;12.00;;;;;23.01;41.83;100617.69;110187;1259;20643;-36
2023/09/01 09:28:48;;;;;;;;;5.00;5.00;;;;;22.92;42.00;100614.77;110147;1251;19667;-36
2023/09/01 09:31:16;;;;;;;;;6.00;6.00;;;;;22.94;42.02;100614.54;110177;1250;20115;-35
2023/09/01 09:33:44;;;;;;;;;4.50;4.50;;;;;22.93;41.84;100618.80;110186;1265;19371;-37
2023/09/01 09:36:11;;;;;;;;;6.00;4.50;;;;;22.91;41.84;100618.50;110166;1265;19557;-37
2023/09/01 09:38:39;;;;;;;;;7.00;7.00;;;;;22.92;42.23;100619.64;110115;1265;20181;-35
2023/09/01 09:41:06;;;;;;;;;14.00;14.00;;;;;22.89;42.17;100620.80;110105;1251;20806;-36
2023/09/01 09:43:33;;;;;;;;;9.00;9.00;;;;;22.96;42.19;100620.91;110099;1265;18482;-36
2023/09/01 09:46:01;;;;;;;;;5.00;5.00;;;;;23.07;42.35;100618.77;110196;1257;24022;-36
2023/09/01 09:48:28;;;;;;;;;8.00;8.00;;;;;23.12;42.81;100622.66;110184;1250;20671;-37
2023/09/01 09:50:55;;;;;;;;;11.00;11.00;;;;;23.14;42.71;100618.65;110174;1265;18808;-37
2023/09/01 09:53:23;;;;;;;;;4.00;4.00;;;;;23.12;42.89;100617.42;110164;1265;18724;-37
2023/09/01 09:55:50;;;;;;;;;8.00;7.00;;;;;23.14;42.69;100620.06;110193;1265;19516;-37
2023/09/01 09:58:17;;;;;;;;;9.00;9.00;;;;;23.17;42.83;100619.71;110182;1250;21012;-37
2023/09/01 10:00:45;;;;;;;;;7.50;7.50;;;;;23.13;42.48;100620.42;110180;1265;19983;-37
2023/09/01 10:03:12;;;;;;;;;11.00;11.00;;;;;23.07;41.76;100624.24;110180;1257;19598;-37
2023/09/01 10:05:39;;;;;;;;;8.50;7.50;;;;;23.12;41.41;100626.77;110147;1251;22232;-37
2023/09/01 10:08:07;;;;;;;;;7.00;7.00;;;;;23.15;41.38;100631.05;110171;1265;20261;-37
2023/09/01 10:10:34;;;;;;;;;7.00;7.00;;;;;23.18;41.48;100636.15;110171;1250;20765;-38
2023/09/01 10:13:02;;;;;;;;;4.00;4.00;;;;;23.17;41.56;100635.67;110206;1249;19642;-37
2023/09/01 10:15:30;;;;;;;;;4.00;4.00;;;;;23.14;41.11;100639.85;110215;1249;19951;-38
2023/09/01 10:17:58;;;;;;;;;7.00;7.00;;;;;22.94;41.15;100643.98;110185;1250;22244;-37
2023/09/01 10:20:25;;;;;;;;;7.00;7.00;;;;;22.94;40.70;100644.20;110112;1265;18493;-37
2023/09/01 10:22:52;;;;;;;;;7.00;7.00;;;;;22.99;40.53;100641.36;110143;1251;21366;-36
2023/09/01 10:25:20;;;;;;;;;8.00;8.00;;;;;22.98;40.46;100645.10;110176;1265;20624;-37
2023/09/01 10:27:47;;;;;;;;;7.50;6.00;;;;;22.96;41.01;100647.04;110150;1265;18396;-36
2023/09/01 10:30:15;;;;;;;;;4.00;4.00;;;;;22.88;41.23;100645.19;110177;1265;18697;-37
2023/09/01 10:32:42;;;;;;;;;7.00;7.00;;;;;22.94;41.32;100643.60;110204;1265;19308;-36
2023/09/01 10:35:09;;;;;;;;;9.00;9.00;;;;;23.02;41.21;100647.35;110200;1265;18262;-37
2023/09/01 10:37:37;;;;;;;;;8.00;7.00;;;;;23.03;41.23;100651.22;110192;1251;20119;-37
2023/09/01 10:40:05;;;;;;;;;5.00;5.00;;;;;23.07;41.41;100650.30;110172;1251;20739;-35
2023/09/01 10:42:32;;;;;;;;;8.00;8.00;;;;;23.06;41.55;100657.69;110207;1250;22347;-36
2023/09/01 10:44:59;;;;;;;;;10.00;10.00;;;;;22.95;41.86;100658.45;110206;1260;19959;-37
2023/09/01 10:47:27;;;;;;;;;5.00;5.00;;;;;22.91;41.91;100658.65;110198;1266;21670;-37
2023/09/01 10:49:54;;;;;;;;;5.00;5.00;;;;;22.94;42.16;100658.67;110194;1250;19989;-37
2023/09/01 10:52:22;;;;;;;;;5.00;5.00;;;;;22.96;41.85;100655.55;110194;1250;18645;-37
2023/09/01 10:54:50;;;;;;;;;8.00;8.00;;;;;22.91;41.80;100651.66;110207;1250;20773;-37
2023/09/01 10:57:17;;;;;;;;;4.00;4.00;;;;;22.83;41.94;100652.27;110201;1257;18401;-37
2023/09/01 10:59:44;;;;;;;;;5.50;5.50;;;;;22.85;41.40;100654.11;110206;1251;20046;-37
2023/09/01 11:02:12;;;;;;;;;4.33;4.33;;;;;22.86;41.69;100656.85;110188;1249;19282;-36
2023/09/01 11:04:39;;;;;;;;;5.00;5.00;;;;;22.94;41.89;100656.16;110210;1260;20745;-36
2023/09/01 11:07:10;;;;;;;;;4.00;4.00;;;;;22.93;41.74;100645.02;110188;1250;20041;-36
2023/09/01 11:09:39;;;;;;;;;5.00;5.00;;;;;22.98;41.25;100652.48;110196;1259;20790;-37
2023/09/01 11:12:06;;;;;;;;;6.00;6.00;;;;;22.99;40.83;100648.52;110186;1250;19654;-36
2023/09/01 11:14:34;;;;;;;;;26.00;23.00;;;;;22.89;40.18;100647.95;110163;1265;18660;-36